Portada
METAR-TAF:

METAR-TAF

Aeroports :

Waynesville Regional Airport at Forney Field

Fort Leonard Wood, Missouri, Estats Units d'Amèrica

latitud: 37-44N, longitud: 092-08W, altitud: 353 m

Observació

L'informe es va fer fa 35 minuts, a les 19:56 UTC
Vent 5 kt del Est/Nord-Est
Temperatura 6°C
Humitat 65%
Pressió 1017 hPa
Visibilitat: 16.1 km
Cel ennuvolat a una alçada de 13000 ft

METAR: KTBN 221956Z AUTO 06005KT 10SM BKN130 06/00 A3004 RMK AO2 SLP181 T00570003

Hora: 14:31 (20:31 UTC)


TAF: manca

Observacions i pronòstics meteorològics de més de 4000 aeroports (METAR i TAF).

Les estacions disponibles són els punts grocs i vermells al mapa.

Posi el ratolí al punt desitjat per veure el nom de l'estació.

Feu clic per veure les observacions i els pronòstics meteorològics.

Per canviar el mapa: feu clic els botons verds amb una creu de color negre per apropar; al botó verd amb un guió per allunyar la imatge; o en les fletxes verdes per a mapes adjacents.


METAR-TAF: